Balmaceda, Chile
Current Conditions -  °F | °C
As of 2:00 AM on Monday 22 Dec 2014 (Local Time) from SCAP Reporting Station
Clear Clear  
Wind Chill: 43°   Ceiling: Unl
Heat Index: 43°   Visibility: NA
Dew Point: 37°   Wind: 1mph
Humidity: 81%   Direction: NA
Pressure: 30.39"   Gusts: NA
Location:  45.92°S, 71.7°W
Report Text: SCAP 220500Z AUTO VRB01KT //// // NSC 06/03 Q1029
Loading
Personal Weather Stations






























Interactive Weather Map New forecast layout! Learn more

10-Day Weather Forecast

Advertisements
Track Severe Weather on mobile